sensor_id;sensor_type;location;lat;lon;timestamp;temperature;humidity
67722;SHT31;58309;45.292;11.820;2023-07-16T00:01:40;24.69;87.43
67722;SHT31;58309;45.292;11.820;2023-07-16T00:04:05;24.70;87.52
67722;SHT31;58309;45.292;11.820;2023-07-16T00:06:31;24.64;87.52
67722;SHT31;58309;45.292;11.820;2023-07-16T00:08:56;24.64;87.38
67722;SHT31;58309;45.292;11.820;2023-07-16T00:11:22;24.64;87.20
67722;SHT31;58309;45.292;11.820;2023-07-16T00:13:47;24.63;87.23
67722;SHT31;58309;45.292;11.820;2023-07-16T00:16:14;24.57;87.44
67722;SHT31;58309;45.292;11.820;2023-07-16T00:18:41;24.59;87.40
67722;SHT31;58309;45.292;11.820;2023-07-16T00:21:07;24.59;87.53
67722;SHT31;58309;45.292;11.820;2023-07-16T00:23:33;24.55;87.70
67722;SHT31;58309;45.292;11.820;2023-07-16T00:25:58;24.52;88.02
67722;SHT31;58309;45.292;11.820;2023-07-16T00:28:24;24.51;88.24
67722;SHT31;58309;45.292;11.820;2023-07-16T00:30:49;24.51;88.50
67722;SHT31;58309;45.292;11.820;2023-07-16T00:33:14;24.53;88.58
67722;SHT31;58309;45.292;11.820;2023-07-16T00:35:47;24.51;88.54
67722;SHT31;58309;45.292;11.820;2023-07-16T00:38:13;24.49;88.52
67722;SHT31;58309;45.292;11.820;2023-07-16T00:40:38;24.46;88.63
67722;SHT31;58309;45.292;11.820;2023-07-16T00:43:03;24.51;88.58
67722;SHT31;58309;45.292;11.820;2023-07-16T00:45:29;24.48;88.64
67722;SHT31;58309;45.292;11.820;2023-07-16T00:47:54;24.45;88.55
67722;SHT31;58309;45.292;11.820;2023-07-16T00:50:20;24.43;88.58
67722;SHT31;58309;45.292;11.820;2023-07-16T00:52:45;24.37;88.76
67722;SHT31;58309;45.292;11.820;2023-07-16T00:55:12;24.42;88.98
67722;SHT31;58309;45.292;11.820;2023-07-16T00:57:38;24.40;89.15
67722;SHT31;58309;45.292;11.820;2023-07-16T01:00:05;24.40;89.14
67722;SHT31;58309;45.292;11.820;2023-07-16T01:02:31;24.40;89.36
67722;SHT31;58309;45.292;11.820;2023-07-16T01:04:56;24.36;89.30
67722;SHT31;58309;45.292;11.820;2023-07-16T01:07:24;24.32;89.53
67722;SHT31;58309;45.292;11.820;2023-07-16T01:09:50;24.32;89.85
67722;SHT31;58309;45.292;11.820;2023-07-16T01:12:17;24.28;89.97
67722;SHT31;58309;45.292;11.820;2023-07-16T01:14:45;24.25;90.19
67722;SHT31;58309;45.292;11.820;2023-07-16T01:17:10;24.21;90.42
67722;SHT31;58309;45.292;11.820;2023-07-16T01:19:36;24.19;90.69
67722;SHT31;58309;45.292;11.820;2023-07-16T01:22:06;24.18;91.03
67722;SHT31;58309;45.292;11.820;2023-07-16T01:29:31;24.14;91.39
67722;SHT31;58309;45.292;11.820;2023-07-16T01:32:00;24.12;91.50
67722;SHT31;58309;45.292;11.820;2023-07-16T01:34:28;24.21;91.75
67722;SHT31;58309;45.292;11.820;2023-07-16T01:36:54;24.18;91.80
67722;SHT31;58309;45.292;11.820;2023-07-16T01:39:20;24.19;91.80
67722;SHT31;58309;45.292;11.820;2023-07-16T01:41:46;24.19;91.77
67722;SHT31;58309;45.292;11.820;2023-07-16T01:44:11;24.18;91.77
67722;SHT31;58309;45.292;11.820;2023-07-16T01:46:37;24.15;91.91
67722;SHT31;58309;45.292;11.820;2023-07-16T01:49:02;24.12;92.10
67722;SHT31;58309;45.292;11.820;2023-07-16T01:51:28;24.12;92.13
67722;SHT31;58309;45.292;11.820;2023-07-16T01:53:53;24.12;92.28
67722;SHT31;58309;45.292;11.820;2023-07-16T01:56:19;24.15;92.17
67722;SHT31;58309;45.292;11.820;2023-07-16T01:58:44;24.11;92.21
67722;SHT31;58309;45.292;11.820;2023-07-16T02:01:10;24.12;92.11
67722;SHT31;58309;45.292;11.820;2023-07-16T02:03:35;24.08;92.28
67722;SHT31;58309;45.292;11.820;2023-07-16T02:06:01;24.06;92.31
67722;SHT31;58309;45.292;11.820;2023-07-16T02:08:26;24.01;92.52
67722;SHT31;58309;45.292;11.820;2023-07-16T02:10:52;24.04;92.51
67722;SHT31;58309;45.292;11.820;2023-07-16T02:13:17;23.97;92.56
67722;SHT31;58309;45.292;11.820;2023-07-16T02:15:43;23.92;92.65
67722;SHT31;58309;45.292;11.820;2023-07-16T02:18:09;23.89;92.95
67722;SHT31;58309;45.292;11.820;2023-07-16T02:20:34;23.88;93.06
67722;SHT31;58309;45.292;11.820;2023-07-16T02:23:00;23.86;93.20
67722;SHT31;58309;45.292;11.820;2023-07-16T02:25:25;23.85;93.18
67722;SHT31;58309;45.292;11.820;2023-07-16T02:27:51;23.79;93.27
67722;SHT31;58309;45.292;11.820;2023-07-16T02:30:17;23.79;93.33
67722;SHT31;58309;45.292;11.820;2023-07-16T02:32:43;23.74;93.50
67722;SHT31;58309;45.292;11.820;2023-07-16T02:35:08;23.70;93.41
67722;SHT31;58309;45.292;11.820;2023-07-16T02:37:34;23.64;93.52
67722;SHT31;58309;45.292;11.820;2023-07-16T02:39:59;23.57;93.65
67722;SHT31;58309;45.292;11.820;2023-07-16T02:42:25;23.53;93.77
67722;SHT31;58309;45.292;11.820;2023-07-16T02:44:51;23.51;93.89
67722;SHT31;58309;45.292;11.820;2023-07-16T02:47:16;23.57;94.01
67722;SHT31;58309;45.292;11.820;2023-07-16T02:49:42;23.67;93.49
67722;SHT31;58309;45.292;11.820;2023-07-16T02:52:07;23.60;93.56
67722;SHT31;58309;45.292;11.820;2023-07-16T02:54:35;23.60;93.59
67722;SHT31;58309;45.292;11.820;2023-07-16T02:57:01;23.55;93.67
67722;SHT31;58309;45.292;11.820;2023-07-16T02:59:26;23.51;93.79
67722;SHT31;58309;45.292;11.820;2023-07-16T03:01:52;23.47;93.85
67722;SHT31;58309;45.292;11.820;2023-07-16T03:04:19;23.49;94.11
67722;SHT31;58309;45.292;11.820;2023-07-16T03:06:44;23.43;94.04
67722;SHT31;58309;45.292;11.820;2023-07-16T03:09:09;23.39;94.17
67722;SHT31;58309;45.292;11.820;2023-07-16T03:11:35;23.34;94.32
67722;SHT31;58309;45.292;11.820;2023-07-16T03:14:00;23.31;94.51
67722;SHT31;58309;45.292;11.820;2023-07-16T03:16:26;23.30;94.52
67722;SHT31;58309;45.292;11.820;2023-07-16T03:18:52;23.27;94.72
67722;SHT31;58309;45.292;11.820;2023-07-16T03:21:18;23.26;94.79
67722;SHT31;58309;45.292;11.820;2023-07-16T03:23:43;23.24;94.74
67722;SHT31;58309;45.292;11.820;2023-07-16T03:26:08;23.22;94.72
67722;SHT31;58309;45.292;11.820;2023-07-16T03:28:34;23.19;94.67
67722;SHT31;58309;45.292;11.820;2023-07-16T03:30:59;23.19;94.95
67722;SHT31;58309;45.292;11.820;2023-07-16T03:33:25;23.14;94.81
67722;SHT31;58309;45.292;11.820;2023-07-16T03:35:51;23.13;94.85
67722;SHT31;58309;45.292;11.820;2023-07-16T03:38:16;23.10;94.86
67722;SHT31;58309;45.292;11.820;2023-07-16T03:40:46;23.06;94.94
67722;SHT31;58309;45.292;11.820;2023-07-16T03:43:11;23.05;95.03
67722;SHT31;58309;45.292;11.820;2023-07-16T03:45:37;23.03;95.08
67722;SHT31;58309;45.292;11.820;2023-07-16T03:48:02;23.05;95.21
67722;SHT31;58309;45.292;11.820;2023-07-16T03:50:28;23.00;95.18
67722;SHT31;58309;45.292;11.820;2023-07-16T03:52:53;23.00;95.28
67722;SHT31;58309;45.292;11.820;2023-07-16T03:55:19;22.99;95.23
67722;SHT31;58309;45.292;11.820;2023-07-16T03:57:44;23.02;95.34
67722;SHT31;58309;45.292;11.820;2023-07-16T04:00:10;23.00;95.33
67722;SHT31;58309;45.292;11.820;2023-07-16T04:02:36;23.03;95.35
67722;SHT31;58309;45.292;11.820;2023-07-16T04:05:02;23.07;95.31
67722;SHT31;58309;45.292;11.820;2023-07-16T04:07:28;23.09;95.23
67722;SHT31;58309;45.292;11.820;2023-07-16T04:09:54;23.12;95.12
67722;SHT31;58309;45.292;11.820;2023-07-16T04:12:19;23.14;95.06
67722;SHT31;58309;45.292;11.820;2023-07-16T04:14:45;23.16;95.19
67722;SHT31;58309;45.292;11.820;2023-07-16T04:17:11;23.17;95.10
67722;SHT31;58309;45.292;11.820;2023-07-16T04:19:37;23.23;95.10
67722;SHT31;58309;45.292;11.820;2023-07-16T04:22:03;23.28;94.97
67722;SHT31;58309;45.292;11.820;2023-07-16T04:24:28;23.34;94.90
67722;SHT31;58309;45.292;11.820;2023-07-16T04:26:54;23.42;94.78
67722;SHT31;58309;45.292;11.820;2023-07-16T04:29:19;23.46;94.80
67722;SHT31;58309;45.292;11.820;2023-07-16T04:31:45;23.51;94.57
67722;SHT31;58309;45.292;11.820;2023-07-16T04:34:10;23.60;94.40
67722;SHT31;58309;45.292;11.820;2023-07-16T04:36:36;23.65;94.36
67722;SHT31;58309;45.292;11.820;2023-07-16T04:39:01;23.75;94.16
67722;SHT31;58309;45.292;11.820;2023-07-16T04:41:27;23.79;94.02
67722;SHT31;58309;45.292;11.820;2023-07-16T04:43:53;23.92;93.83
67722;SHT31;58309;45.292;11.820;2023-07-16T04:46:18;24.05;93.78
67722;SHT31;58309;45.292;11.820;2023-07-16T04:48:43;24.21;93.55
67722;SHT31;58309;45.292;11.820;2023-07-16T04:51:09;24.30;93.23
67722;SHT31;58309;45.292;11.820;2023-07-16T04:53:34;24.43;93.08
67722;SHT31;58309;45.292;11.820;2023-07-16T04:56:00;24.53;92.80
67722;SHT31;58309;45.292;11.820;2023-07-16T04:58:25;24.64;92.61
67722;SHT31;58309;45.292;11.820;2023-07-16T05:00:51;24.74;92.44
67722;SHT31;58309;45.292;11.820;2023-07-16T05:03:16;24.84;92.05
67722;SHT31;58309;45.292;11.820;2023-07-16T05:05:42;24.94;91.81
67722;SHT31;58309;45.292;11.820;2023-07-16T05:08:07;25.03;91.73
67722;SHT31;58309;45.292;11.820;2023-07-16T05:10:33;25.10;91.58
67722;SHT31;58309;45.292;11.820;2023-07-16T05:12:58;25.21;91.23
67722;SHT31;58309;45.292;11.820;2023-07-16T05:15:24;25.27;91.05
67722;SHT31;58309;45.292;11.820;2023-07-16T05:17:50;25.31;90.69
67722;SHT31;58309;45.292;11.820;2023-07-16T05:20:15;25.39;90.62
67722;SHT31;58309;45.292;11.820;2023-07-16T05:22:40;25.42;90.41
67722;SHT31;58309;45.292;11.820;2023-07-16T05:25:06;25.54;90.50
67722;SHT31;58309;45.292;11.820;2023-07-16T05:27:32;25.62;90.38
67722;SHT31;58309;45.292;11.820;2023-07-16T05:29:57;25.76;89.94
67722;SHT31;58309;45.292;11.820;2023-07-16T05:32:22;25.83;88.76
67722;SHT31;58309;45.292;11.820;2023-07-16T05:34:48;25.89;88.68
67722;SHT31;58309;45.292;11.820;2023-07-16T05:37:13;25.96;88.65
67722;SHT31;58309;45.292;11.820;2023-07-16T05:39:39;26.03;88.31
67722;SHT31;58309;45.292;11.820;2023-07-16T05:42:05;26.14;88.27
67722;SHT31;58309;45.292;11.820;2023-07-16T05:44:31;26.22;88.33
67722;SHT31;58309;45.292;11.820;2023-07-16T05:46:56;26.30;88.24
67722;SHT31;58309;45.292;11.820;2023-07-16T05:49:23;26.27;88.28
67722;SHT31;58309;45.292;11.820;2023-07-16T05:51:49;26.29;88.66
67722;SHT31;58309;45.292;11.820;2023-07-16T05:54:14;26.29;88.30
67722;SHT31;58309;45.292;11.820;2023-07-16T05:56:40;26.45;88.23
67722;SHT31;58309;45.292;11.820;2023-07-16T05:59:05;26.53;88.25
67722;SHT31;58309;45.292;11.820;2023-07-16T06:01:30;26.61;87.98
67722;SHT31;58309;45.292;11.820;2023-07-16T06:03:56;26.73;87.72
67722;SHT31;58309;45.292;11.820;2023-07-16T06:06:21;26.90;88.15
67722;SHT31;58309;45.292;11.820;2023-07-16T06:08:47;26.99;87.57
67722;SHT31;58309;45.292;11.820;2023-07-16T06:11:13;27.09;86.95
67722;SHT31;58309;45.292;11.820;2023-07-16T06:13:39;27.13;87.34
67722;SHT31;58309;45.292;11.820;2023-07-16T06:16:05;27.21;87.33
67722;SHT31;58309;45.292;11.820;2023-07-16T06:18:30;27.33;87.16
67722;SHT31;58309;45.292;11.820;2023-07-16T06:20:56;27.36;86.40
67722;SHT31;58309;45.292;11.820;2023-07-16T06:23:22;27.45;85.94
67722;SHT31;58309;45.292;11.820;2023-07-16T06:25:47;27.62;86.52
67722;SHT31;58309;45.292;11.820;2023-07-16T06:28:15;27.69;86.99
67722;SHT31;58309;45.292;11.820;2023-07-16T06:30:41;27.98;86.40
67722;SHT31;58309;45.292;11.820;2023-07-16T06:33:07;28.04;85.98
67722;SHT31;58309;45.292;11.820;2023-07-16T06:35:32;27.86;85.73
67722;SHT31;58309;45.292;11.820;2023-07-16T06:37:58;27.93;86.56
67722;SHT31;58309;45.292;11.820;2023-07-16T06:40:24;27.93;86.19
67722;SHT31;58309;45.292;11.820;2023-07-16T06:42:49;28.03;86.29
67722;SHT31;58309;45.292;11.820;2023-07-16T06:45:16;28.04;86.35
67722;SHT31;58309;45.292;11.820;2023-07-16T06:47:43;28.01;87.00
67722;SHT31;58309;45.292;11.820;2023-07-16T06:50:09;28.10;86.23
67722;SHT31;58309;45.292;11.820;2023-07-16T06:52:34;28.21;86.51
67722;SHT31;58309;45.292;11.820;2023-07-16T06:55:00;28.41;85.86
67722;SHT31;58309;45.292;11.820;2023-07-16T06:57:25;28.56;85.80
67722;SHT31;58309;45.292;11.820;2023-07-16T06:59:51;28.49;85.64
67722;SHT31;58309;45.292;11.820;2023-07-16T07:02:17;28.65;85.44
67722;SHT31;58309;45.292;11.820;2023-07-16T07:04:43;28.78;84.61
67722;SHT31;58309;45.292;11.820;2023-07-16T07:07:08;28.62;84.94
67722;SHT31;58309;45.292;11.820;2023-07-16T07:09:34;28.71;85.21
67722;SHT31;58309;45.292;11.820;2023-07-16T07:11:59;28.91;84.18
67722;SHT31;58309;45.292;11.820;2023-07-16T07:14:25;29.00;83.27
67722;SHT31;58309;45.292;11.820;2023-07-16T07:16:50;29.26;83.40
67722;SHT31;58309;45.292;11.820;2023-07-16T07:19:16;29.37;82.96
67722;SHT31;58309;45.292;11.820;2023-07-16T07:21:41;29.60;82.59
67722;SHT31;58309;45.292;11.820;2023-07-16T07:24:06;29.68;82.25
67722;SHT31;58309;45.292;11.820;2023-07-16T07:26:32;29.65;82.06
67722;SHT31;58309;45.292;11.820;2023-07-16T07:28:57;29.38;81.29
67722;SHT31;58309;45.292;11.820;2023-07-16T07:31:23;29.60;81.41
67722;SHT31;58309;45.292;11.820;2023-07-16T07:33:48;29.80;81.20
67722;SHT31;58309;45.292;11.820;2023-07-16T07:36:14;29.74;82.28
67722;SHT31;58309;45.292;11.820;2023-07-16T07:38:39;29.86;80.85
67722;SHT31;58309;45.292;11.820;2023-07-16T07:41:05;30.00;81.70
67722;SHT31;58309;45.292;11.820;2023-07-16T07:43:31;30.00;79.33
67722;SHT31;58309;45.292;11.820;2023-07-16T07:45:56;29.86;80.20
67722;SHT31;58309;45.292;11.820;2023-07-16T07:48:22;30.01;80.38
67722;SHT31;58309;45.292;11.820;2023-07-16T07:50:47;30.26;81.23
67722;SHT31;58309;45.292;11.820;2023-07-16T07:53:13;30.37;78.34
67722;SHT31;58309;45.292;11.820;2023-07-16T07:55:40;30.46;78.73
67722;SHT31;58309;45.292;11.820;2023-07-16T07:58:07;30.77;78.07
67722;SHT31;58309;45.292;11.820;2023-07-16T08:00:33;30.81;76.92
67722;SHT31;58309;45.292;11.820;2023-07-16T08:02:58;30.84;76.40
67722;SHT31;58309;45.292;11.820;2023-07-16T08:05:24;31.01;76.67
67722;SHT31;58309;45.292;11.820;2023-07-16T08:07:49;31.41;75.07
67722;SHT31;58309;45.292;11.820;2023-07-16T08:10:15;32.05;73.58
67722;SHT31;58309;45.292;11.820;2023-07-16T08:12:43;33.26;70.03
67722;SHT31;58309;45.292;11.820;2023-07-16T08:15:10;34.07;68.08
67722;SHT31;58309;45.292;11.820;2023-07-16T08:17:40;34.18;65.85
67722;SHT31;58309;45.292;11.820;2023-07-16T08:20:06;34.28;66.08
67722;SHT31;58309;45.292;11.820;2023-07-16T08:22:32;34.45;65.80
67722;SHT31;58309;45.292;11.820;2023-07-16T08:24:57;34.82;65.02
67722;SHT31;58309;45.292;11.820;2023-07-16T08:27:23;36.02;62.17
67722;SHT31;58309;45.292;11.820;2023-07-16T08:29:48;36.38;60.08
67722;SHT31;58309;45.292;11.820;2023-07-16T08:32:14;37.74;57.01
67722;SHT31;58309;45.292;11.820;2023-07-16T08:34:39;37.46;58.12
67722;SHT31;58309;45.292;11.820;2023-07-16T08:37:05;37.53;57.00
67722;SHT31;58309;45.292;11.820;2023-07-16T08:39:31;37.65;57.84
67722;SHT31;58309;45.292;11.820;2023-07-16T08:41:56;37.07;58.97
67722;SHT31;58309;45.292;11.820;2023-07-16T08:44:23;37.44;57.76
67722;SHT31;58309;45.292;11.820;2023-07-16T08:46:50;37.95;57.37
67722;SHT31;58309;45.292;11.820;2023-07-16T08:49:17;36.78;59.76
67722;SHT31;58309;45.292;11.820;2023-07-16T08:51:45;36.90;58.49
67722;SHT31;58309;45.292;11.820;2023-07-16T08:54:12;37.25;60.72
67722;SHT31;58309;45.292;11.820;2023-07-16T08:56:41;37.22;58.07
67722;SHT31;58309;45.292;11.820;2023-07-16T08:59:07;38.15;57.10
67722;SHT31;58309;45.292;11.820;2023-07-16T09:01:33;38.80;55.97
67722;SHT31;58309;45.292;11.820;2023-07-16T09:03:59;38.94;53.53
67722;SHT31;58309;45.292;11.820;2023-07-16T09:06:24;37.67;56.72
67722;SHT31;58309;45.292;11.820;2023-07-16T09:08:50;37.68;59.06
67722;SHT31;58309;45.292;11.820;2023-07-16T09:11:15;37.43;58.48
67722;SHT31;58309;45.292;11.820;2023-07-16T09:13:46;37.77;56.81
67722;SHT31;58309;45.292;11.820;2023-07-16T09:16:11;38.26;56.36
67722;SHT31;58309;45.292;11.820;2023-07-16T09:18:39;39.06;56.38
67722;SHT31;58309;45.292;11.820;2023-07-16T09:21:05;39.78;54.72
67722;SHT31;58309;45.292;11.820;2023-07-16T09:23:32;40.44;54.44
67722;SHT31;58309;45.292;11.820;2023-07-16T09:25:58;40.40;52.81
67722;SHT31;58309;45.292;11.820;2023-07-16T09:28:24;38.94;60.26
67722;SHT31;58309;45.292;11.820;2023-07-16T09:30:52;38.26;56.96
67722;SHT31;58309;45.292;11.820;2023-07-16T09:33:21;38.16;54.35
67722;SHT31;58309;45.292;11.820;2023-07-16T09:35:51;38.35;55.94
67722;SHT31;58309;45.292;11.820;2023-07-16T09:38:17;38.76;54.16
67722;SHT31;58309;45.292;11.820;2023-07-16T09:40:43;39.31;53.08
67722;SHT31;58309;45.292;11.820;2023-07-16T09:43:10;39.48;53.29
67722;SHT31;58309;45.292;11.820;2023-07-16T09:45:36;39.85;52.16
67722;SHT31;58309;45.292;11.820;2023-07-16T09:48:03;40.19;50.76
67722;SHT31;58309;45.292;11.820;2023-07-16T09:50:31;40.43;50.88
67722;SHT31;58309;45.292;11.820;2023-07-16T09:52:57;40.43;49.59
67722;SHT31;58309;45.292;11.820;2023-07-16T09:55:23;40.50;50.50
67722;SHT31;58309;45.292;11.820;2023-07-16T09:57:51;40.26;50.51
67722;SHT31;58309;45.292;11.820;2023-07-16T10:00:17;40.81;50.60
67722;SHT31;58309;45.292;11.820;2023-07-16T10:02:45;40.03;50.68
67722;SHT31;58309;45.292;11.820;2023-07-16T10:05:19;39.57;52.42
67722;SHT31;58309;45.292;11.820;2023-07-16T10:07:53;40.20;51.77
67722;SHT31;58309;45.292;11.820;2023-07-16T10:10:20;40.46;49.73
67722;SHT31;58309;45.292;11.820;2023-07-16T10:12:56;39.50;51.57
67722;SHT31;58309;45.292;11.820;2023-07-16T10:15:29;39.85;49.71
67722;SHT31;58309;45.292;11.820;2023-07-16T10:17:56;39.76;49.53
67722;SHT31;58309;45.292;11.820;2023-07-16T10:20:29;40.08;50.52
67722;SHT31;58309;45.292;11.820;2023-07-16T10:22:55;40.60;51.05
67722;SHT31;58309;45.292;11.820;2023-07-16T10:27:47;41.45;48.25
67722;SHT31;58309;45.292;11.820;2023-07-16T10:30:12;41.72;47.45
67722;SHT31;58309;45.292;11.820;2023-07-16T10:32:38;40.06;51.15
67722;SHT31;58309;45.292;11.820;2023-07-16T10:35:05;40.74;48.86
67722;SHT31;58309;45.292;11.820;2023-07-16T10:37:31;40.86;49.49
67722;SHT31;58309;45.292;11.820;2023-07-16T10:39:58;40.33;49.13
67722;SHT31;58309;45.292;11.820;2023-07-16T10:42:26;40.63;49.37
67722;SHT31;58309;45.292;11.820;2023-07-16T10:44:58;41.34;47.29
67722;SHT31;58309;45.292;11.820;2023-07-16T10:47:29;41.31;47.44
67722;SHT31;58309;45.292;11.820;2023-07-16T10:49:55;41.30;46.69
67722;SHT31;58309;45.292;11.820;2023-07-16T10:52:22;41.27;47.97
67722;SHT31;58309;45.292;11.820;2023-07-16T10:54:48;39.03;51.53
67722;SHT31;58309;45.292;11.820;2023-07-16T10:57:15;40.71;47.54
67722;SHT31;58309;45.292;11.820;2023-07-16T10:59:42;41.04;46.90
67722;SHT31;58309;45.292;11.820;2023-07-16T11:02:11;40.81;47.24
67722;SHT31;58309;45.292;11.820;2023-07-16T11:04:37;41.34;47.69
67722;SHT31;58309;45.292;11.820;2023-07-16T11:07:07;41.42;48.46
67722;SHT31;58309;45.292;11.820;2023-07-16T11:09:34;40.60;49.45
67722;SHT31;58309;45.292;11.820;2023-07-16T11:12:07;41.37;46.30
67722;SHT31;58309;45.292;11.820;2023-07-16T11:14:33;41.96;45.68
67722;SHT31;58309;45.292;11.820;2023-07-16T11:17:08;42.21;46.23
67722;SHT31;58309;45.292;11.820;2023-07-16T11:19:36;42.75;45.33
67722;SHT31;58309;45.292;11.820;2023-07-16T11:22:03;41.69;46.91
67722;SHT31;58309;45.292;11.820;2023-07-16T11:24:36;41.86;45.61
67722;SHT31;58309;45.292;11.820;2023-07-16T11:27:01;41.49;46.12
67722;SHT31;58309;45.292;11.820;2023-07-16T11:29:34;41.46;46.69
67722;SHT31;58309;45.292;11.820;2023-07-16T11:31:59;41.66;46.82
67722;SHT31;58309;45.292;11.820;2023-07-16T11:34:25;39.15;50.80
67722;SHT31;58309;45.292;11.820;2023-07-16T11:36:50;39.82;49.01
67722;SHT31;58309;45.292;11.820;2023-07-16T11:39:16;39.03;51.85
67722;SHT31;58309;45.292;11.820;2023-07-16T11:41:41;39.55;50.23
67722;SHT31;58309;45.292;11.820;2023-07-16T11:44:07;39.95;50.30
67722;SHT31;58309;45.292;11.820;2023-07-16T11:46:33;39.33;52.32
67722;SHT31;58309;45.292;11.820;2023-07-16T11:49:00;39.95;49.04
67722;SHT31;58309;45.292;11.820;2023-07-16T11:51:25;40.62;47.37
67722;SHT31;58309;45.292;11.820;2023-07-16T11:53:51;40.64;49.62
67722;SHT31;58309;45.292;11.820;2023-07-16T11:56:16;41.73;45.84
67722;SHT31;58309;45.292;11.820;2023-07-16T11:58:41;41.62;47.46
67722;SHT31;58309;45.292;11.820;2023-07-16T12:01:07;41.80;46.38
67722;SHT31;58309;45.292;11.820;2023-07-16T12:03:33;42.30;45.50
67722;SHT31;58309;45.292;11.820;2023-07-16T12:05:59;41.22;48.14
67722;SHT31;58309;45.292;11.820;2023-07-16T12:08:24;41.51;47.04
67722;SHT31;58309;45.292;11.820;2023-07-16T12:10:50;41.02;47.03
67722;SHT31;58309;45.292;11.820;2023-07-16T12:13:15;40.37;49.28
67722;SHT31;58309;45.292;11.820;2023-07-16T12:15:41;41.51;46.69
67722;SHT31;58309;45.292;11.820;2023-07-16T12:18:06;41.18;46.46
67722;SHT31;58309;45.292;11.820;2023-07-16T12:20:31;41.51;46.64
67722;SHT31;58309;45.292;11.820;2023-07-16T12:22:57;40.17;48.86
67722;SHT31;58309;45.292;11.820;2023-07-16T12:25:22;40.56;48.49
67722;SHT31;58309;45.292;11.820;2023-07-16T12:27:48;40.24;48.24
67722;SHT31;58309;45.292;11.820;2023-07-16T12:30:13;40.05;49.67
67722;SHT31;58309;45.292;11.820;2023-07-16T12:32:39;39.72;50.10
67722;SHT31;58309;45.292;11.820;2023-07-16T12:35:04;38.69;50.95
67722;SHT31;58309;45.292;11.820;2023-07-16T12:37:30;38.21;52.53
67722;SHT31;58309;45.292;11.820;2023-07-16T12:39:55;38.09;53.89
67722;SHT31;58309;45.292;11.820;2023-07-16T12:42:21;37.16;54.40
67722;SHT31;58309;45.292;11.820;2023-07-16T12:44:47;36.86;54.55
67722;SHT31;58309;45.292;11.820;2023-07-16T12:47:12;36.71;55.90
67722;SHT31;58309;45.292;11.820;2023-07-16T12:49:38;36.61;56.12
67722;SHT31;58309;45.292;11.820;2023-07-16T12:52:03;36.37;55.39
67722;SHT31;58309;45.292;11.820;2023-07-16T12:54:29;36.20;56.67
67722;SHT31;58309;45.292;11.820;2023-07-16T12:56:55;35.88;56.83
67722;SHT31;58309;45.292;11.820;2023-07-16T12:59:20;35.66;58.36
67722;SHT31;58309;45.292;11.820;2023-07-16T13:01:45;35.46;58.25
67722;SHT31;58309;45.292;11.820;2023-07-16T13:04:11;35.37;56.27
67722;SHT31;58309;45.292;11.820;2023-07-16T13:06:36;35.26;56.15
67722;SHT31;58309;45.292;11.820;2023-07-16T13:09:02;35.36;58.20
67722;SHT31;58309;45.292;11.820;2023-07-16T13:11:30;35.42;59.45
67722;SHT31;58309;45.292;11.820;2023-07-16T13:13:55;35.46;58.47
67722;SHT31;58309;45.292;11.820;2023-07-16T13:16:21;35.35;57.09
67722;SHT31;58309;45.292;11.820;2023-07-16T13:18:47;34.94;59.31
67722;SHT31;58309;45.292;11.820;2023-07-16T13:21:12;35.06;58.71
67722;SHT31;58309;45.292;11.820;2023-07-16T13:23:38;35.05;59.11
67722;SHT31;58309;45.292;11.820;2023-07-16T13:26:03;34.78;59.76
67722;SHT31;58309;45.292;11.820;2023-07-16T13:28:28;34.88;59.35
67722;SHT31;58309;45.292;11.820;2023-07-16T13:30:54;35.02;59.47
67722;SHT31;58309;45.292;11.820;2023-07-16T13:33:19;34.91;60.57
67722;SHT31;58309;45.292;11.820;2023-07-16T13:35:45;34.65;61.02
67722;SHT31;58309;45.292;11.820;2023-07-16T13:38:10;34.92;58.55
67722;SHT31;58309;45.292;11.820;2023-07-16T13:40:36;35.02;58.38
67722;SHT31;58309;45.292;11.820;2023-07-16T13:43:01;35.09;59.76
67722;SHT31;58309;45.292;11.820;2023-07-16T13:45:27;34.98;59.47
67722;SHT31;58309;45.292;11.820;2023-07-16T13:47:52;35.13;58.81
67722;SHT31;58309;45.292;11.820;2023-07-16T13:50:19;35.02;58.46
67722;SHT31;58309;45.292;11.820;2023-07-16T13:52:44;35.12;58.74
67722;SHT31;58309;45.292;11.820;2023-07-16T13:55:10;35.10;58.77
67722;SHT31;58309;45.292;11.820;2023-07-16T13:57:36;35.16;59.02
67722;SHT31;58309;45.292;11.820;2023-07-16T14:00:02;35.00;58.07
67722;SHT31;58309;45.292;11.820;2023-07-16T14:02:29;34.68;60.05
67722;SHT31;58309;45.292;11.820;2023-07-16T14:04:54;34.85;60.26
67722;SHT31;58309;45.292;11.820;2023-07-16T14:07:20;35.12;59.70
67722;SHT31;58309;45.292;11.820;2023-07-16T14:09:45;35.03;59.42
67722;SHT31;58309;45.292;11.820;2023-07-16T14:12:11;35.28;58.27
67722;SHT31;58309;45.292;11.820;2023-07-16T14:14:36;35.51;58.94
67722;SHT31;58309;45.292;11.820;2023-07-16T14:17:02;35.57;58.06
67722;SHT31;58309;45.292;11.820;2023-07-16T14:19:28;35.70;58.55
67722;SHT31;58309;45.292;11.820;2023-07-16T14:21:55;35.66;58.56
67722;SHT31;58309;45.292;11.820;2023-07-16T14:24:20;35.49;59.24
67722;SHT31;58309;45.292;11.820;2023-07-16T14:26:46;35.72;58.59
67722;SHT31;58309;45.292;11.820;2023-07-16T14:29:11;35.61;58.27
67722;SHT31;58309;45.292;11.820;2023-07-16T14:31:37;35.59;59.03
67722;SHT31;58309;45.292;11.820;2023-07-16T14:34:03;35.63;59.84
67722;SHT31;58309;45.292;11.820;2023-07-16T14:36:28;35.69;59.37
67722;SHT31;58309;45.292;11.820;2023-07-16T14:38:54;35.77;60.27
67722;SHT31;58309;45.292;11.820;2023-07-16T14:41:20;36.00;58.18
67722;SHT31;58309;45.292;11.820;2023-07-16T14:43:45;36.11;57.02
67722;SHT31;58309;45.292;11.820;2023-07-16T14:46:13;36.05;57.09
67722;SHT31;58309;45.292;11.820;2023-07-16T14:48:44;35.90;57.71
67722;SHT31;58309;45.292;11.820;2023-07-16T14:51:13;35.88;59.11
67722;SHT31;58309;45.292;11.820;2023-07-16T14:53:38;36.01;59.96
67722;SHT31;58309;45.292;11.820;2023-07-16T14:56:04;35.53;60.35
67722;SHT31;58309;45.292;11.820;2023-07-16T14:58:33;35.53;60.05
67722;SHT31;58309;45.292;11.820;2023-07-16T15:01:00;35.61;60.63
67722;SHT31;58309;45.292;11.820;2023-07-16T15:03:31;35.26;60.85
67722;SHT31;58309;45.292;11.820;2023-07-16T15:05:59;34.98;62.44
67722;SHT31;58309;45.292;11.820;2023-07-16T15:08:25;34.87;62.28
67722;SHT31;58309;45.292;11.820;2023-07-16T15:10:52;35.02;62.58
67722;SHT31;58309;45.292;11.820;2023-07-16T15:13:18;35.28;62.32
67722;SHT31;58309;45.292;11.820;2023-07-16T15:15:49;35.63;61.54